CMB812 Details

Departure: Bucholz AAF Airport (PKWA)
Arrival: Daniel K Inouye International Airport (PHNL) at N/A
Route: NDJ 1130N/17200E MANRE R584 MCFLY R584 CHOKO
Notes: USTRANSCOM CONTRACT FLIGHT


Current Weather Information
PKWA 251120Z AUTO 09006KT 10SM CLR 29/25 A2985 RMK AO2 T02850250
PHNL 251053Z 08009KT 10SM CLR 28/21 A3000 RMK AO2 SLP157 T02780206